Adams, Tennessee
Current Conditions -  °F | °C
As of 7:52 AM on Saturday 25 Oct 2014 (Local Time) from KCKV Reporting Station
Haze Haze  
Wind Chill: 11°   Ceiling: 7000
Heat Index: 11°   Visibility: 4mi
Dew Point: 10°   Wind: 3mph
Humidity: 93%   Direction: 190°S
Pressure: 30.07"   Gusts: NA
Location:  36.58°N, 87.07°W
Report Text: KCKV 251252Z AUTO 19003KT 4SM BR FEW046 BKN070 11/10 A3007 RMK AO2 SLP181 T01110100
Loading
Personal Weather Stations






























Interactive Weather Map
Tropical Storm Tracking
New forecast layout! Learn more

10-Day Weather Forecast

Advertisements
Track Severe Weather on mobile